sensor_id;sensor_type;location;lat;lon;timestamp;P1;durP1;ratioP1;P2;durP2;ratioP2
9657;SDS011;4867;48.112;11.622;2022-12-29T00:00:55;2.03;;;1.60;;
9657;SDS011;4867;48.112;11.622;2022-12-29T00:03:25;1.70;;;1.60;;
9657;SDS011;4867;48.112;11.622;2022-12-29T00:05:54;2.30;;;2.00;;
9657;SDS011;4867;48.112;11.622;2022-12-29T00:08:21;2.87;;;2.23;;
9657;SDS011;4867;48.112;11.622;2022-12-29T00:11:08;2.00;;;1.80;;
9657;SDS011;4867;48.112;11.622;2022-12-29T00:13:50;2.10;;;1.90;;
9657;SDS011;4867;48.112;11.622;2022-12-29T00:16:37;2.00;;;1.70;;
9657;SDS011;4867;48.112;11.622;2022-12-29T00:19:07;3.33;;;2.30;;
9657;SDS011;4867;48.112;11.622;2022-12-29T00:21:54;1.83;;;1.63;;
9657;SDS011;4867;48.112;11.622;2022-12-29T00:24:40;2.20;;;1.63;;
9657;SDS011;4867;48.112;11.622;2022-12-29T00:27:26;2.13;;;1.73;;
9657;SDS011;4867;48.112;11.622;2022-12-29T00:30:16;1.70;;;1.60;;
9657;SDS011;4867;48.112;11.622;2022-12-29T00:33:15;2.33;;;1.60;;
9657;SDS011;4867;48.112;11.622;2022-12-29T00:36:45;2.83;;;1.57;;
9657;SDS011;4867;48.112;11.622;2022-12-29T00:38:57;2.20;;;1.87;;
9657;SDS011;4867;48.112;11.622;2022-12-29T00:41:48;2.63;;;1.70;;
9657;SDS011;4867;48.112;11.622;2022-12-29T00:44:34;2.57;;;2.07;;
9657;SDS011;4867;48.112;11.622;2022-12-29T00:47:01;1.83;;;1.70;;
9657;SDS011;4867;48.112;11.622;2022-12-29T00:49:31;2.13;;;1.57;;
9657;SDS011;4867;48.112;11.622;2022-12-29T00:52:01;1.67;;;1.57;;
9657;SDS011;4867;48.112;11.622;2022-12-29T00:54:33;2.03;;;1.80;;
9657;SDS011;4867;48.112;11.622;2022-12-29T00:57:05;2.67;;;1.70;;
9657;SDS011;4867;48.112;11.622;2022-12-29T00:59:35;2.20;;;1.77;;
9657;SDS011;4867;48.112;11.622;2022-12-29T01:02:03;2.77;;;2.07;;
9657;SDS011;4867;48.112;11.622;2022-12-29T01:04:30;4.40;;;2.00;;
9657;SDS011;4867;48.112;11.622;2022-12-29T01:06:58;1.90;;;1.60;;
9657;SDS011;4867;48.112;11.622;2022-12-29T01:09:26;1.73;;;1.50;;
9657;SDS011;4867;48.112;11.622;2022-12-29T01:12:12;1.73;;;1.40;;
9657;SDS011;4867;48.112;11.622;2022-12-29T01:14:40;2.53;;;1.30;;
9657;SDS011;4867;48.112;11.622;2022-12-29T01:17:07;2.50;;;2.00;;
9657;SDS011;4867;48.112;11.622;2022-12-29T01:19:35;2.07;;;1.63;;
9657;SDS011;4867;48.112;11.622;2022-12-29T01:22:02;2.10;;;1.40;;
9657;SDS011;4867;48.112;11.622;2022-12-29T01:24:29;2.00;;;1.70;;
9657;SDS011;4867;48.112;11.622;2022-12-29T01:26:56;2.00;;;1.60;;
9657;SDS011;4867;48.112;11.622;2022-12-29T01:29:24;3.10;;;1.60;;
9657;SDS011;4867;48.112;11.622;2022-12-29T01:31:51;2.00;;;1.30;;
9657;SDS011;4867;48.112;11.622;2022-12-29T01:34:18;1.97;;;1.60;;
9657;SDS011;4867;48.112;11.622;2022-12-29T01:36:45;1.63;;;1.43;;
9657;SDS011;4867;48.112;11.622;2022-12-29T01:39:13;1.97;;;1.67;;
9657;SDS011;4867;48.112;11.622;2022-12-29T01:41:40;1.90;;;1.60;;
9657;SDS011;4867;48.112;11.622;2022-12-29T01:47:09;1.83;;;1.60;;
9657;SDS011;4867;48.112;11.622;2022-12-29T01:49:37;2.20;;;1.50;;
9657;SDS011;4867;48.112;11.622;2022-12-29T01:52:05;1.83;;;1.50;;
9657;SDS011;4867;48.112;11.622;2022-12-29T01:57:07;1.40;;;1.30;;
9657;SDS011;4867;48.112;11.622;2022-12-29T01:59:39;2.00;;;1.40;;
9657;SDS011;4867;48.112;11.622;2022-12-29T02:02:12;1.33;;;1.23;;
9657;SDS011;4867;48.112;11.622;2022-12-29T02:04:40;1.43;;;1.33;;
9657;SDS011;4867;48.112;11.622;2022-12-29T02:07:17;2.07;;;1.47;;
9657;SDS011;4867;48.112;11.622;2022-12-29T02:09:46;1.23;;;1.13;;
9657;SDS011;4867;48.112;11.622;2022-12-29T02:12:16;1.63;;;1.33;;
9657;SDS011;4867;48.112;11.622;2022-12-29T02:14:44;1.57;;;1.40;;
9657;SDS011;4867;48.112;11.622;2022-12-29T02:17:15;1.60;;;1.40;;
9657;SDS011;4867;48.112;11.622;2022-12-29T02:34:26;1.40;;;1.17;;
9657;SDS011;4867;48.112;11.622;2022-12-29T02:42:50;1.77;;;1.57;;
9657;SDS011;4867;48.112;11.622;2022-12-29T02:45:32;1.40;;;1.30;;
9657;SDS011;4867;48.112;11.622;2022-12-29T02:50:48;1.50;;;1.40;;
9657;SDS011;4867;48.112;11.622;2022-12-29T02:53:29;1.40;;;1.13;;
9657;SDS011;4867;48.112;11.622;2022-12-29T02:56:18;1.57;;;1.40;;
9657;SDS011;4867;48.112;11.622;2022-12-29T02:58:46;1.40;;;1.20;;
9657;SDS011;4867;48.112;11.622;2022-12-29T03:01:19;1.57;;;1.47;;
9657;SDS011;4867;48.112;11.622;2022-12-29T03:09:38;1.40;;;1.30;;
9657;SDS011;4867;48.112;11.622;2022-12-29T03:12:47;1.80;;;1.67;;
9657;SDS011;4867;48.112;11.622;2022-12-29T03:16:28;1.30;;;1.20;;
9657;SDS011;4867;48.112;11.622;2022-12-29T03:24:17;1.37;;;1.20;;
9657;SDS011;4867;48.112;11.622;2022-12-29T03:26:48;2.23;;;1.60;;
9657;SDS011;4867;48.112;11.622;2022-12-29T03:29:18;1.67;;;1.20;;
9657;SDS011;4867;48.112;11.622;2022-12-29T03:31:48;1.70;;;1.40;;
9657;SDS011;4867;48.112;11.622;2022-12-29T03:34:18;1.20;;;1.10;;
9657;SDS011;4867;48.112;11.622;2022-12-29T03:36:49;1.20;;;1.00;;
9657;SDS011;4867;48.112;11.622;2022-12-29T03:39:20;3.07;;;1.20;;
9657;SDS011;4867;48.112;11.622;2022-12-29T03:41:50;1.30;;;1.20;;
9657;SDS011;4867;48.112;11.622;2022-12-29T03:44:38;1.50;;;1.40;;
9657;SDS011;4867;48.112;11.622;2022-12-29T03:47:12;1.37;;;1.27;;
9657;SDS011;4867;48.112;11.622;2022-12-29T03:49:43;1.47;;;1.20;;
9657;SDS011;4867;48.112;11.622;2022-12-29T03:52:11;1.37;;;1.27;;
9657;SDS011;4867;48.112;11.622;2022-12-29T03:54:42;1.67;;;1.57;;
9657;SDS011;4867;48.112;11.622;2022-12-29T03:57:11;1.40;;;1.30;;
9657;SDS011;4867;48.112;11.622;2022-12-29T03:59:49;1.50;;;1.30;;
9657;SDS011;4867;48.112;11.622;2022-12-29T04:02:17;1.70;;;1.60;;
9657;SDS011;4867;48.112;11.622;2022-12-29T04:04:45;1.40;;;1.20;;
9657;SDS011;4867;48.112;11.622;2022-12-29T04:07:12;1.17;;;1.07;;
9657;SDS011;4867;48.112;11.622;2022-12-29T04:09:40;2.03;;;1.60;;
9657;SDS011;4867;48.112;11.622;2022-12-29T04:12:11;1.40;;;1.20;;
9657;SDS011;4867;48.112;11.622;2022-12-29T04:14:38;1.70;;;1.57;;
9657;SDS011;4867;48.112;11.622;2022-12-29T04:17:06;1.50;;;1.37;;
9657;SDS011;4867;48.112;11.622;2022-12-29T04:19:33;1.70;;;1.50;;
9657;SDS011;4867;48.112;11.622;2022-12-29T04:22:00;1.23;;;1.13;;
9657;SDS011;4867;48.112;11.622;2022-12-29T04:24:28;1.67;;;1.50;;
9657;SDS011;4867;48.112;11.622;2022-12-29T04:26:56;1.57;;;1.30;;
9657;SDS011;4867;48.112;11.622;2022-12-29T04:29:46;1.43;;;1.33;;
9657;SDS011;4867;48.112;11.622;2022-12-29T04:32:36;1.93;;;1.53;;
9657;SDS011;4867;48.112;11.622;2022-12-29T04:35:05;2.10;;;1.23;;
9657;SDS011;4867;48.112;11.622;2022-12-29T04:37:33;1.50;;;1.40;;
9657;SDS011;4867;48.112;11.622;2022-12-29T04:40:00;1.43;;;1.33;;
9657;SDS011;4867;48.112;11.622;2022-12-29T04:42:29;1.30;;;1.10;;
9657;SDS011;4867;48.112;11.622;2022-12-29T04:44:56;2.07;;;1.57;;
9657;SDS011;4867;48.112;11.622;2022-12-29T04:47:42;1.37;;;1.27;;
9657;SDS011;4867;48.112;11.622;2022-12-29T04:50:36;1.73;;;1.43;;
9657;SDS011;4867;48.112;11.622;2022-12-29T04:53:13;1.40;;;1.30;;
9657;SDS011;4867;48.112;11.622;2022-12-29T04:55:42;1.43;;;1.33;;
9657;SDS011;4867;48.112;11.622;2022-12-29T04:58:10;1.47;;;1.37;;
9657;SDS011;4867;48.112;11.622;2022-12-29T05:00:43;1.47;;;1.37;;
9657;SDS011;4867;48.112;11.622;2022-12-29T05:03:10;1.90;;;1.40;;
9657;SDS011;4867;48.112;11.622;2022-12-29T05:05:40;1.40;;;1.30;;
9657;SDS011;4867;48.112;11.622;2022-12-29T05:08:08;1.40;;;1.30;;
9657;SDS011;4867;48.112;11.622;2022-12-29T05:10:39;1.20;;;1.10;;
9657;SDS011;4867;48.112;11.622;2022-12-29T05:13:11;1.50;;;1.30;;
9657;SDS011;4867;48.112;11.622;2022-12-29T05:15:39;1.10;;;1.10;;
9657;SDS011;4867;48.112;11.622;2022-12-29T05:18:06;2.20;;;1.30;;
9657;SDS011;4867;48.112;11.622;2022-12-29T05:20:33;1.40;;;1.23;;
9657;SDS011;4867;48.112;11.622;2022-12-29T05:23:02;1.30;;;1.20;;
9657;SDS011;4867;48.112;11.622;2022-12-29T05:25:29;1.37;;;1.27;;
9657;SDS011;4867;48.112;11.622;2022-12-29T05:28:08;1.50;;;1.30;;
9657;SDS011;4867;48.112;11.622;2022-12-29T05:30:42;3.63;;;1.30;;
9657;SDS011;4867;48.112;11.622;2022-12-29T05:33:10;1.93;;;1.23;;
9657;SDS011;4867;48.112;11.622;2022-12-29T05:35:39;1.60;;;1.50;;
9657;SDS011;4867;48.112;11.622;2022-12-29T05:38:06;2.40;;;1.30;;
9657;SDS011;4867;48.112;11.622;2022-12-29T05:40:34;2.00;;;1.70;;
9657;SDS011;4867;48.112;11.622;2022-12-29T05:43:05;2.23;;;1.60;;
9657;SDS011;4867;48.112;11.622;2022-12-29T05:45:53;1.67;;;1.50;;
9657;SDS011;4867;48.112;11.622;2022-12-29T05:48:41;1.83;;;1.50;;
9657;SDS011;4867;48.112;11.622;2022-12-29T05:51:29;2.97;;;1.60;;
9657;SDS011;4867;48.112;11.622;2022-12-29T05:53:57;3.13;;;1.87;;
9657;SDS011;4867;48.112;11.622;2022-12-29T05:56:24;2.50;;;1.50;;
9657;SDS011;4867;48.112;11.622;2022-12-29T05:58:56;1.60;;;1.50;;
9657;SDS011;4867;48.112;11.622;2022-12-29T06:01:24;1.77;;;1.30;;
9657;SDS011;4867;48.112;11.622;2022-12-29T06:03:52;1.97;;;1.77;;
9657;SDS011;4867;48.112;11.622;2022-12-29T06:06:20;3.10;;;1.70;;
9657;SDS011;4867;48.112;11.622;2022-12-29T06:08:47;1.40;;;1.30;;
9657;SDS011;4867;48.112;11.622;2022-12-29T06:11:14;1.50;;;1.40;;
9657;SDS011;4867;48.112;11.622;2022-12-29T06:13:48;2.13;;;1.60;;
9657;SDS011;4867;48.112;11.622;2022-12-29T06:16:16;1.87;;;1.67;;
9657;SDS011;4867;48.112;11.622;2022-12-29T06:18:43;1.70;;;1.60;;
9657;SDS011;4867;48.112;11.622;2022-12-29T06:21:10;1.50;;;1.30;;
9657;SDS011;4867;48.112;11.622;2022-12-29T06:23:38;1.83;;;1.50;;
9657;SDS011;4867;48.112;11.622;2022-12-29T06:26:05;2.20;;;1.83;;
9657;SDS011;4867;48.112;11.622;2022-12-29T06:28:33;2.63;;;1.60;;
9657;SDS011;4867;48.112;11.622;2022-12-29T06:31:00;1.93;;;1.43;;
9657;SDS011;4867;48.112;11.622;2022-12-29T06:33:29;1.70;;;1.60;;
9657;SDS011;4867;48.112;11.622;2022-12-29T06:35:57;1.70;;;1.60;;
9657;SDS011;4867;48.112;11.622;2022-12-29T06:38:24;3.60;;;1.80;;
9657;SDS011;4867;48.112;11.622;2022-12-29T06:40:51;1.77;;;1.60;;
9657;SDS011;4867;48.112;11.622;2022-12-29T06:43:18;3.03;;;1.50;;
9657;SDS011;4867;48.112;11.622;2022-12-29T06:46:03;2.10;;;1.60;;
9657;SDS011;4867;48.112;11.622;2022-12-29T06:48:31;1.60;;;1.50;;
9657;SDS011;4867;48.112;11.622;2022-12-29T06:50:58;1.70;;;1.60;;
9657;SDS011;4867;48.112;11.622;2022-12-29T06:53:26;1.87;;;1.57;;
9657;SDS011;4867;48.112;11.622;2022-12-29T06:55:53;1.63;;;1.50;;
9657;SDS011;4867;48.112;11.622;2022-12-29T06:58:20;2.23;;;1.63;;
9657;SDS011;4867;48.112;11.622;2022-12-29T07:00:48;2.00;;;1.70;;
9657;SDS011;4867;48.112;11.622;2022-12-29T07:03:15;2.07;;;1.60;;
9657;SDS011;4867;48.112;11.622;2022-12-29T07:05:42;2.00;;;1.50;;
9657;SDS011;4867;48.112;11.622;2022-12-29T07:08:10;2.00;;;1.80;;
9657;SDS011;4867;48.112;11.622;2022-12-29T07:10:37;2.00;;;1.80;;
9657;SDS011;4867;48.112;11.622;2022-12-29T07:13:04;2.07;;;1.70;;
9657;SDS011;4867;48.112;11.622;2022-12-29T07:15:34;2.90;;;2.00;;
9657;SDS011;4867;48.112;11.622;2022-12-29T07:18:03;1.70;;;1.60;;
9657;SDS011;4867;48.112;11.622;2022-12-29T07:20:30;2.70;;;1.60;;
9657;SDS011;4867;48.112;11.622;2022-12-29T07:22:58;2.67;;;1.70;;
9657;SDS011;4867;48.112;11.622;2022-12-29T07:25:25;1.80;;;1.63;;
9657;SDS011;4867;48.112;11.622;2022-12-29T07:27:52;1.83;;;1.60;;
9657;SDS011;4867;48.112;11.622;2022-12-29T07:30:20;1.80;;;1.70;;
9657;SDS011;4867;48.112;11.622;2022-12-29T07:32:47;2.40;;;1.70;;
9657;SDS011;4867;48.112;11.622;2022-12-29T07:35:14;2.10;;;1.83;;
9657;SDS011;4867;48.112;11.622;2022-12-29T07:37:43;1.97;;;1.70;;
9657;SDS011;4867;48.112;11.622;2022-12-29T07:40:10;2.70;;;1.80;;
9657;SDS011;4867;48.112;11.622;2022-12-29T07:42:39;1.97;;;1.60;;
9657;SDS011;4867;48.112;11.622;2022-12-29T07:45:08;2.00;;;1.80;;
9657;SDS011;4867;48.112;11.622;2022-12-29T07:47:48;2.93;;;1.90;;
9657;SDS011;4867;48.112;11.622;2022-12-29T07:50:16;2.17;;;1.60;;
9657;SDS011;4867;48.112;11.622;2022-12-29T07:52:44;3.63;;;1.90;;
9657;SDS011;4867;48.112;11.622;2022-12-29T07:55:12;3.20;;;2.03;;
9657;SDS011;4867;48.112;11.622;2022-12-29T07:57:40;1.90;;;1.70;;
9657;SDS011;4867;48.112;11.622;2022-12-29T08:00:08;1.70;;;1.60;;
9657;SDS011;4867;48.112;11.622;2022-12-29T08:02:38;2.20;;;1.93;;
9657;SDS011;4867;48.112;11.622;2022-12-29T08:05:06;1.70;;;1.50;;
9657;SDS011;4867;48.112;11.622;2022-12-29T08:07:33;2.00;;;1.80;;
9657;SDS011;4867;48.112;11.622;2022-12-29T08:10:00;1.60;;;1.50;;
9657;SDS011;4867;48.112;11.622;2022-12-29T08:12:28;1.77;;;1.67;;
9657;SDS011;4867;48.112;11.622;2022-12-29T08:14:55;1.60;;;1.50;;
9657;SDS011;4867;48.112;11.622;2022-12-29T08:17:22;2.07;;;1.70;;
9657;SDS011;4867;48.112;11.622;2022-12-29T08:19:49;1.70;;;1.60;;
9657;SDS011;4867;48.112;11.622;2022-12-29T08:22:17;2.33;;;1.90;;
9657;SDS011;4867;48.112;11.622;2022-12-29T08:24:44;2.43;;;2.23;;
9657;SDS011;4867;48.112;11.622;2022-12-29T08:27:11;3.10;;;2.80;;
9657;SDS011;4867;48.112;11.622;2022-12-29T08:29:46;2.17;;;1.97;;
9657;SDS011;4867;48.112;11.622;2022-12-29T08:32:14;3.17;;;2.50;;
9657;SDS011;4867;48.112;11.622;2022-12-29T08:34:41;2.30;;;2.10;;
9657;SDS011;4867;48.112;11.622;2022-12-29T08:37:08;2.47;;;2.17;;
9657;SDS011;4867;48.112;11.622;2022-12-29T08:39:35;3.27;;;1.90;;
9657;SDS011;4867;48.112;11.622;2022-12-29T08:42:03;3.93;;;3.53;;
9657;SDS011;4867;48.112;11.622;2022-12-29T08:44:30;7.27;;;5.90;;
9657;SDS011;4867;48.112;11.622;2022-12-29T08:46:57;3.23;;;2.30;;
9657;SDS011;4867;48.112;11.622;2022-12-29T08:49:24;2.03;;;1.83;;
9657;SDS011;4867;48.112;11.622;2022-12-29T08:51:52;2.07;;;1.83;;
9657;SDS011;4867;48.112;11.622;2022-12-29T08:54:19;2.43;;;1.87;;
9657;SDS011;4867;48.112;11.622;2022-12-29T08:56:46;3.40;;;2.00;;
9657;SDS011;4867;48.112;11.622;2022-12-29T08:59:15;4.73;;;4.23;;
9657;SDS011;4867;48.112;11.622;2022-12-29T09:01:45;2.37;;;2.17;;
9657;SDS011;4867;48.112;11.622;2022-12-29T09:04:12;2.53;;;2.17;;
9657;SDS011;4867;48.112;11.622;2022-12-29T09:06:43;5.07;;;3.17;;
9657;SDS011;4867;48.112;11.622;2022-12-29T09:09:11;2.70;;;2.20;;
9657;SDS011;4867;48.112;11.622;2022-12-29T09:11:39;2.00;;;1.80;;
9657;SDS011;4867;48.112;11.622;2022-12-29T09:14:06;3.10;;;2.80;;
9657;SDS011;4867;48.112;11.622;2022-12-29T09:16:34;2.83;;;2.50;;
9657;SDS011;4867;48.112;11.622;2022-12-29T09:19:02;2.77;;;2.20;;
9657;SDS011;4867;48.112;11.622;2022-12-29T09:21:30;4.07;;;2.00;;
9657;SDS011;4867;48.112;11.622;2022-12-29T09:23:57;2.17;;;1.90;;
9657;SDS011;4867;48.112;11.622;2022-12-29T09:26:24;2.77;;;1.70;;
9657;SDS011;4867;48.112;11.622;2022-12-29T09:28:52;2.00;;;1.80;;
9657;SDS011;4867;48.112;11.622;2022-12-29T09:31:19;2.93;;;1.80;;
9657;SDS011;4867;48.112;11.622;2022-12-29T09:33:47;2.10;;;1.70;;
9657;SDS011;4867;48.112;11.622;2022-12-29T09:36:14;3.20;;;2.57;;
9657;SDS011;4867;48.112;11.622;2022-12-29T09:38:41;3.37;;;1.77;;
9657;SDS011;4867;48.112;11.622;2022-12-29T09:41:12;2.37;;;1.90;;
9657;SDS011;4867;48.112;11.622;2022-12-29T09:46:34;2.33;;;1.90;;
9657;SDS011;4867;48.112;11.622;2022-12-29T09:49:13;3.97;;;2.87;;
9657;SDS011;4867;48.112;11.622;2022-12-29T09:51:43;3.27;;;1.50;;
9657;SDS011;4867;48.112;11.622;2022-12-29T09:54:23;2.20;;;1.83;;
9657;SDS011;4867;48.112;11.622;2022-12-29T09:57:03;1.60;;;1.50;;
9657;SDS011;4867;48.112;11.622;2022-12-29T09:59:40;3.27;;;1.63;;
9657;SDS011;4867;48.112;11.622;2022-12-29T10:02:31;1.97;;;1.70;;
9657;SDS011;4867;48.112;11.622;2022-12-29T10:08:11;4.83;;;2.80;;
9657;SDS011;4867;48.112;11.622;2022-12-29T10:10:56;1.30;;;1.20;;
9657;SDS011;4867;48.112;11.622;2022-12-29T10:17:00;1.90;;;1.63;;
9657;SDS011;4867;48.112;11.622;2022-12-29T10:25:24;3.17;;;2.80;;
9657;SDS011;4867;48.112;11.622;2022-12-29T10:27:59;2.00;;;1.70;;
9657;SDS011;4867;48.112;11.622;2022-12-29T10:30:39;3.87;;;1.80;;
9657;SDS011;4867;48.112;11.622;2022-12-29T10:33:07;1.67;;;1.50;;
9657;SDS011;4867;48.112;11.622;2022-12-29T10:35:41;4.50;;;3.30;;
9657;SDS011;4867;48.112;11.622;2022-12-29T10:38:14;2.40;;;2.20;;
9657;SDS011;4867;48.112;11.622;2022-12-29T10:40:59;3.10;;;1.70;;
9657;SDS011;4867;48.112;11.622;2022-12-29T10:43:45;4.60;;;3.60;;
9657;SDS011;4867;48.112;11.622;2022-12-29T10:46:19;2.07;;;1.87;;
9657;SDS011;4867;48.112;11.622;2022-12-29T10:48:54;2.60;;;2.33;;
9657;SDS011;4867;48.112;11.622;2022-12-29T10:51:24;1.83;;;1.50;;
9657;SDS011;4867;48.112;11.622;2022-12-29T10:54:09;2.47;;;1.93;;
9657;SDS011;4867;48.112;11.622;2022-12-29T10:59:30;2.73;;;1.50;;
9657;SDS011;4867;48.112;11.622;2022-12-29T11:04:46;3.23;;;2.27;;
9657;SDS011;4867;48.112;11.622;2022-12-29T11:07:19;3.10;;;2.53;;
9657;SDS011;4867;48.112;11.622;2022-12-29T11:09:53;1.83;;;1.70;;
9657;SDS011;4867;48.112;11.622;2022-12-29T11:12:30;3.03;;;1.70;;
9657;SDS011;4867;48.112;11.622;2022-12-29T11:17:44;3.00;;;2.37;;
9657;SDS011;4867;48.112;11.622;2022-12-29T11:23:02;3.30;;;1.60;;
9657;SDS011;4867;48.112;11.622;2022-12-29T11:25:30;1.77;;;1.43;;
9657;SDS011;4867;48.112;11.622;2022-12-29T11:28:13;2.67;;;1.60;;
9657;SDS011;4867;48.112;11.622;2022-12-29T11:30:42;1.60;;;1.37;;
9657;SDS011;4867;48.112;11.622;2022-12-29T11:33:10;2.83;;;1.63;;
9657;SDS011;4867;48.112;11.622;2022-12-29T11:35:43;2.47;;;1.90;;
9657;SDS011;4867;48.112;11.622;2022-12-29T11:38:21;2.00;;;1.77;;
9657;SDS011;4867;48.112;11.622;2022-12-29T11:40:53;1.63;;;1.47;;
9657;SDS011;4867;48.112;11.622;2022-12-29T11:46:03;1.87;;;1.53;;
9657;SDS011;4867;48.112;11.622;2022-12-29T11:48:33;2.47;;;2.17;;
9657;SDS011;4867;48.112;11.622;2022-12-29T11:51:06;5.70;;;2.33;;
9657;SDS011;4867;48.112;11.622;2022-12-29T11:53:38;3.73;;;2.00;;
9657;SDS011;4867;48.112;11.622;2022-12-29T11:56:17;3.53;;;2.37;;
9657;SDS011;4867;48.112;11.622;2022-12-29T11:58:49;1.77;;;1.63;;
9657;SDS011;4867;48.112;11.622;2022-12-29T12:01:21;2.30;;;2.00;;
9657;SDS011;4867;48.112;11.622;2022-12-29T12:04:05;1.77;;;1.67;;
9657;SDS011;4867;48.112;11.622;2022-12-29T12:06:49;2.57;;;1.80;;
9657;SDS011;4867;48.112;11.622;2022-12-29T12:09:25;1.67;;;1.47;;
9657;SDS011;4867;48.112;11.622;2022-12-29T12:12:33;1.83;;;1.50;;
9657;SDS011;4867;48.112;11.622;2022-12-29T12:15:03;2.30;;;1.93;;
9657;SDS011;4867;48.112;11.622;2022-12-29T12:23:05;2.33;;;1.40;;
9657;SDS011;4867;48.112;11.622;2022-12-29T12:25:43;2.87;;;1.43;;
9657;SDS011;4867;48.112;11.622;2022-12-29T12:28:21;2.13;;;1.73;;
9657;SDS011;4867;48.112;11.622;2022-12-29T12:31:02;2.50;;;1.73;;
9657;SDS011;4867;48.112;11.622;2022-12-29T12:33:42;2.23;;;1.80;;
9657;SDS011;4867;48.112;11.622;2022-12-29T12:39:06;2.73;;;2.43;;
9657;SDS011;4867;48.112;11.622;2022-12-29T12:56:03;1.97;;;1.63;;
9657;SDS011;4867;48.112;11.622;2022-12-29T12:58:56;4.90;;;2.70;;
9657;SDS011;4867;48.112;11.622;2022-12-29T13:07:20;2.63;;;1.90;;
9657;SDS011;4867;48.112;11.622;2022-12-29T13:12:41;2.97;;;1.57;;
9657;SDS011;4867;48.112;11.622;2022-12-29T13:21:11;1.80;;;1.37;;
9657;SDS011;4867;48.112;11.622;2022-12-29T13:23:45;1.90;;;1.70;;
9657;SDS011;4867;48.112;11.622;2022-12-29T13:26:40;1.63;;;1.50;;
9657;SDS011;4867;48.112;11.622;2022-12-29T13:29:15;2.73;;;1.60;;
9657;SDS011;4867;48.112;11.622;2022-12-29T13:37:09;4.70;;;1.83;;
9657;SDS011;4867;48.112;11.622;2022-12-29T13:39:45;1.93;;;1.73;;
9657;SDS011;4867;48.112;11.622;2022-12-29T13:42:17;2.13;;;1.80;;
9657;SDS011;4867;48.112;11.622;2022-12-29T13:45:00;1.80;;;1.70;;
9657;SDS011;4867;48.112;11.622;2022-12-29T13:47:36;3.30;;;1.70;;
9657;SDS011;4867;48.112;11.622;2022-12-29T13:50:12;2.90;;;1.90;;
9657;SDS011;4867;48.112;11.622;2022-12-29T13:55:33;2.33;;;2.10;;
9657;SDS011;4867;48.112;11.622;2022-12-29T14:03:57;3.10;;;1.80;;
9657;SDS011;4867;48.112;11.622;2022-12-29T14:06:28;1.77;;;1.67;;
9657;SDS011;4867;48.112;11.622;2022-12-29T14:09:04;3.00;;;2.00;;
9657;SDS011;4867;48.112;11.622;2022-12-29T14:11:36;4.53;;;3.23;;
9657;SDS011;4867;48.112;11.622;2022-12-29T14:14:11;2.97;;;1.83;;
9657;SDS011;4867;48.112;11.622;2022-12-29T14:17:09;3.40;;;1.83;;
9657;SDS011;4867;48.112;11.622;2022-12-29T14:19:44;1.87;;;1.70;;
9657;SDS011;4867;48.112;11.622;2022-12-29T14:22:13;2.87;;;1.90;;
9657;SDS011;4867;48.112;11.622;2022-12-29T14:24:58;5.53;;;5.00;;
9657;SDS011;4867;48.112;11.622;2022-12-29T14:29:55;3.80;;;2.60;;
9657;SDS011;4867;48.112;11.622;2022-12-29T14:34:54;2.93;;;2.20;;
9657;SDS011;4867;48.112;11.622;2022-12-29T14:40:03;5.17;;;2.90;;
9657;SDS011;4867;48.112;11.622;2022-12-29T14:42:32;3.07;;;2.77;;
9657;SDS011;4867;48.112;11.622;2022-12-29T14:45:02;6.33;;;2.60;;
9657;SDS011;4867;48.112;11.622;2022-12-29T14:47:43;2.23;;;2.00;;
9657;SDS011;4867;48.112;11.622;2022-12-29T14:53:03;4.60;;;4.20;;
9657;SDS011;4867;48.112;11.622;2022-12-29T15:00:54;4.57;;;3.67;;
9657;SDS011;4867;48.112;11.622;2022-12-29T15:06:05;5.27;;;4.63;;
9657;SDS011;4867;48.112;11.622;2022-12-29T15:08:39;3.57;;;3.00;;
9657;SDS011;4867;48.112;11.622;2022-12-29T15:11:14;11.43;;;10.23;;
9657;SDS011;4867;48.112;11.622;2022-12-29T15:13:44;59.03;;;51.67;;
9657;SDS011;4867;48.112;11.622;2022-12-29T15:16:26;38.83;;;33.03;;
9657;SDS011;4867;48.112;11.622;2022-12-29T15:18:58;12.93;;;10.90;;
9657;SDS011;4867;48.112;11.622;2022-12-29T15:21:34;28.13;;;20.70;;
9657;SDS011;4867;48.112;11.622;2022-12-29T15:24:03;19.87;;;13.77;;
9657;SDS011;4867;48.112;11.622;2022-12-29T15:26:38;11.33;;;7.90;;
9657;SDS011;4867;48.112;11.622;2022-12-29T15:34:43;23.40;;;18.20;;
9657;SDS011;4867;48.112;11.622;2022-12-29T15:37:19;30.13;;;23.83;;
9657;SDS011;4867;48.112;11.622;2022-12-29T15:39:48;12.33;;;10.50;;
9657;SDS011;4867;48.112;11.622;2022-12-29T15:42:21;31.10;;;27.70;;
9657;SDS011;4867;48.112;11.622;2022-12-29T15:44:50;11.90;;;10.67;;
9657;SDS011;4867;48.112;11.622;2022-12-29T15:47:29;6.03;;;4.97;;
9657;SDS011;4867;48.112;11.622;2022-12-29T15:50:04;4.20;;;3.80;;
9657;SDS011;4867;48.112;11.622;2022-12-29T15:52:35;4.30;;;2.93;;
9657;SDS011;4867;48.112;11.622;2022-12-29T15:55:06;3.57;;;3.27;;
9657;SDS011;4867;48.112;11.622;2022-12-29T15:57:48;6.80;;;6.10;;
9657;SDS011;4867;48.112;11.622;2022-12-29T16:00:22;6.33;;;5.13;;
9657;SDS011;4867;48.112;11.622;2022-12-29T16:02:53;8.77;;;6.73;;
9657;SDS011;4867;48.112;11.622;2022-12-29T16:05:21;9.67;;;8.53;;
9657;SDS011;4867;48.112;11.622;2022-12-29T16:07:56;12.67;;;10.40;;
9657;SDS011;4867;48.112;11.622;2022-12-29T16:10:38;6.60;;;5.90;;
9657;SDS011;4867;48.112;11.622;2022-12-29T16:13:15;5.40;;;4.57;;
9657;SDS011;4867;48.112;11.622;2022-12-29T16:15:52;3.70;;;3.40;;
9657;SDS011;4867;48.112;11.622;2022-12-29T16:18:42;6.17;;;4.90;;
9657;SDS011;4867;48.112;11.622;2022-12-29T16:21:21;3.37;;;3.07;;
9657;SDS011;4867;48.112;11.622;2022-12-29T16:23:55;6.00;;;4.63;;
9657;SDS011;4867;48.112;11.622;2022-12-29T16:26:27;4.50;;;4.10;;
9657;SDS011;4867;48.112;11.622;2022-12-29T16:28:58;5.43;;;4.23;;
9657;SDS011;4867;48.112;11.622;2022-12-29T16:31:35;5.63;;;4.10;;
9657;SDS011;4867;48.112;11.622;2022-12-29T16:34:32;4.33;;;3.40;;
9657;SDS011;4867;48.112;11.622;2022-12-29T16:37:04;5.77;;;4.07;;
9657;SDS011;4867;48.112;11.622;2022-12-29T16:39:51;4.77;;;3.77;;
9657;SDS011;4867;48.112;11.622;2022-12-29T16:50:34;4.87;;;4.20;;
9657;SDS011;4867;48.112;11.622;2022-12-29T16:53:04;4.57;;;4.17;;
9657;SDS011;4867;48.112;11.622;2022-12-29T16:55:34;5.97;;;4.23;;
9657;SDS011;4867;48.112;11.622;2022-12-29T16:58:01;3.87;;;3.47;;
9657;SDS011;4867;48.112;11.622;2022-12-29T17:00:30;5.50;;;3.83;;
9657;SDS011;4867;48.112;11.622;2022-12-29T17:03:01;9.03;;;7.90;;
9657;SDS011;4867;48.112;11.622;2022-12-29T17:05:30;16.37;;;13.50;;
9657;SDS011;4867;48.112;11.622;2022-12-29T17:07:57;18.53;;;16.73;;
9657;SDS011;4867;48.112;11.622;2022-12-29T17:10:27;16.67;;;15.17;;
9657;SDS011;4867;48.112;11.622;2022-12-29T17:13:15;9.87;;;6.90;;
9657;SDS011;4867;48.112;11.622;2022-12-29T17:15:42;9.07;;;4.80;;
9657;SDS011;4867;48.112;11.622;2022-12-29T17:18:09;5.33;;;4.03;;
9657;SDS011;4867;48.112;11.622;2022-12-29T17:20:40;2.83;;;2.40;;
9657;SDS011;4867;48.112;11.622;2022-12-29T17:23:14;4.60;;;2.60;;
9657;SDS011;4867;48.112;11.622;2022-12-29T17:25:50;5.80;;;3.07;;
9657;SDS011;4867;48.112;11.622;2022-12-29T17:28:27;4.03;;;2.87;;
9657;SDS011;4867;48.112;11.622;2022-12-29T17:30:58;4.70;;;3.37;;
9657;SDS011;4867;48.112;11.622;2022-12-29T17:33:29;3.80;;;2.57;;
9657;SDS011;4867;48.112;11.622;2022-12-29T17:36:01;4.50;;;3.10;;
9657;SDS011;4867;48.112;11.622;2022-12-29T17:38:29;3.97;;;3.53;;
9657;SDS011;4867;48.112;11.622;2022-12-29T17:40:57;3.93;;;3.10;;
9657;SDS011;4867;48.112;11.622;2022-12-29T17:43:25;4.23;;;2.70;;
9657;SDS011;4867;48.112;11.622;2022-12-29T17:46:02;5.73;;;3.77;;
9657;SDS011;4867;48.112;11.622;2022-12-29T17:48:32;3.50;;;3.20;;
9657;SDS011;4867;48.112;11.622;2022-12-29T17:51:00;3.07;;;2.77;;
9657;SDS011;4867;48.112;11.622;2022-12-29T17:53:28;3.50;;;2.93;;
9657;SDS011;4867;48.112;11.622;2022-12-29T17:55:56;5.83;;;3.37;;
9657;SDS011;4867;48.112;11.622;2022-12-29T17:58:24;3.70;;;3.27;;
9657;SDS011;4867;48.112;11.622;2022-12-29T18:00:54;5.60;;;3.10;;
9657;SDS011;4867;48.112;11.622;2022-12-29T18:03:24;6.47;;;3.77;;
9657;SDS011;4867;48.112;11.622;2022-12-29T18:05:54;5.77;;;3.77;;